CheckWX is a tool to help pilots better visualize weather data.  It is not intended as a substitute for an official pre-flight weather briefing.

14:55:57 UTC

PAEI METAR
Eielson AFB Airport
Fairbanks, Alaska, USA
Current

60 mins ago

PAEI 171356Z AUTO 00000KT 10SM BKN005 OVC080 07/06 A3038 RMK AO2 SLP294 T00700059 $
Observed
Aug-17 @ 13:56 UTC
Visibility
10 SM
Flight Rules
IFR
Cloud Levels
  • Broken at 500' AGL
  • Overcast at 8,000' AGL
Temperature
C / 45°F
Dewpoint
C / 43°F
Humidity
93%
Altimeter
30.38" Hg
Pressure
1028.82 hPa
Previous

1 hour ago

PAEI 171326Z AUTO 00000KT 10SM BKN005 OVC038 07/06 A3038 RMK AO2 CIG 005V038 BKN V FEW SLP294 $
Observed
Aug-17 @ 13:26 UTC
Visibility
10 SM
Flight Rules
IFR
Cloud Levels
  • Broken at 500' AGL
  • Overcast at 3,800' AGL
Temperature
C / 45°F
Dewpoint
C / 43°F
Humidity
93%
Altimeter
30.38" Hg
Pressure
1028.82 hPa
Previous

2 hours ago

PAEI 171256Z AUTO 25003KT 10SM BKN039 OVC046 07/06 A3037 RMK AO2 RAB25E38DZB38E40 SLP290 P0000 T00720060 $
Observed
Aug-17 @ 12:56 UTC
Wind
  • 250° at 3 KTS
Visibility
10 SM
Flight Rules
VFR
Cloud Levels
  • Broken at 3,900' AGL
  • Overcast at 4,600' AGL
Temperature
C / 45°F
Dewpoint
C / 43°F
Humidity
93%
Altimeter
30.37" Hg
Pressure
1028.42 hPa
Current Rain
0.01"